Terminal Aerodrome Forecast
Issued by NWS Austin/San Antonio, TX

Current Version | Previous Version | Text Only | Print | Product List | Glossary On
Versions: 1 2 3 4 5 6 7 8 9 10 11 12 13 14 15 16 17 18 19 20 21
000
FTUS44 KEWX 310200 AAA
TAFAUS
TAF AMD
KAUS 310223Z 3102/0106 09005KT P6SM FEW250
     FM310800 01009KT 4SM -SHRA BR BKN035 OVC080
     FM311000 36011KT P6SM BKN070
     FM311400 36014G24KT P6SM FEW250
     FM311600 01014G24KT P6SM FEW250
     FM010000 02008KT P6SM SKC=

USA.gov is the U.S. government's official web portal to all federal, state and local government web resources and services.